sensor_id;sensor_type;location;lat;lon;timestamp;P1;durP1;ratioP1;P2;durP2;ratioP2
15454;SDS011;21057;51.024;7.540;2023-03-01T00:04:12;22.23;;;20.57;;
15454;SDS011;21057;51.024;7.540;2023-03-01T00:06:38;21.63;;;20.23;;
15454;SDS011;21057;51.024;7.540;2023-03-01T00:09:08;22.40;;;20.90;;
15454;SDS011;21057;51.024;7.540;2023-03-01T00:11:35;21.53;;;20.13;;
15454;SDS011;21057;51.024;7.540;2023-03-01T00:14:02;22.33;;;20.73;;
15454;SDS011;21057;51.024;7.540;2023-03-01T00:16:42;21.67;;;20.10;;
15454;SDS011;21057;51.024;7.540;2023-03-01T00:19:11;21.60;;;20.30;;
15454;SDS011;21057;51.024;7.540;2023-03-01T00:21:40;21.97;;;20.47;;
15454;SDS011;21057;51.024;7.540;2023-03-01T00:24:09;21.93;;;20.53;;
15454;SDS011;21057;51.024;7.540;2023-03-01T00:26:36;22.80;;;21.23;;
15454;SDS011;21057;51.024;7.540;2023-03-01T00:29:03;22.13;;;20.63;;
15454;SDS011;21057;51.024;7.540;2023-03-01T00:31:30;23.23;;;21.63;;
15454;SDS011;21057;51.024;7.540;2023-03-01T00:33:59;23.47;;;21.80;;
15454;SDS011;21057;51.024;7.540;2023-03-01T00:36:31;22.00;;;20.50;;
15454;SDS011;21057;51.024;7.540;2023-03-01T00:38:59;22.80;;;21.10;;
15454;SDS011;21057;51.024;7.540;2023-03-01T00:41:29;21.73;;;20.27;;
15454;SDS011;21057;51.024;7.540;2023-03-01T00:43:56;22.23;;;20.67;;
15454;SDS011;21057;51.024;7.540;2023-03-01T00:46:24;21.93;;;20.43;;
15454;SDS011;21057;51.024;7.540;2023-03-01T00:48:52;21.77;;;20.33;;
15454;SDS011;21057;51.024;7.540;2023-03-01T00:51:26;21.13;;;19.77;;
15454;SDS011;21057;51.024;7.540;2023-03-01T00:53:54;21.80;;;20.43;;
15454;SDS011;21057;51.024;7.540;2023-03-01T00:56:34;21.73;;;20.30;;
15454;SDS011;21057;51.024;7.540;2023-03-01T00:59:01;21.77;;;20.27;;
15454;SDS011;21057;51.024;7.540;2023-03-01T01:01:28;22.20;;;20.83;;
15454;SDS011;21057;51.024;7.540;2023-03-01T01:03:57;21.90;;;20.40;;
15454;SDS011;21057;51.024;7.540;2023-03-01T01:06:33;21.37;;;19.97;;
15454;SDS011;21057;51.024;7.540;2023-03-01T01:09:07;22.13;;;20.73;;
15454;SDS011;21057;51.024;7.540;2023-03-01T01:11:46;21.40;;;19.93;;
15454;SDS011;21057;51.024;7.540;2023-03-01T01:14:14;22.30;;;20.73;;
15454;SDS011;21057;51.024;7.540;2023-03-01T01:16:49;22.83;;;21.33;;
15454;SDS011;21057;51.024;7.540;2023-03-01T01:19:16;22.50;;;21.00;;
15454;SDS011;21057;51.024;7.540;2023-03-01T01:21:44;22.77;;;21.27;;
15454;SDS011;21057;51.024;7.540;2023-03-01T01:24:11;22.60;;;21.03;;
15454;SDS011;21057;51.024;7.540;2023-03-01T01:26:38;22.33;;;20.93;;
15454;SDS011;21057;51.024;7.540;2023-03-01T01:29:09;22.80;;;21.20;;
15454;SDS011;21057;51.024;7.540;2023-03-01T01:31:36;23.33;;;21.40;;
15454;SDS011;21057;51.024;7.540;2023-03-01T01:34:06;22.10;;;20.60;;
15454;SDS011;21057;51.024;7.540;2023-03-01T01:36:34;23.27;;;21.67;;
15454;SDS011;21057;51.024;7.540;2023-03-01T01:39:03;22.17;;;20.67;;
15454;SDS011;21057;51.024;7.540;2023-03-01T01:41:30;21.83;;;20.30;;
15454;SDS011;21057;51.024;7.540;2023-03-01T01:44:12;23.63;;;21.70;;
15454;SDS011;21057;51.024;7.540;2023-03-01T01:46:50;22.37;;;20.70;;
15454;SDS011;21057;51.024;7.540;2023-03-01T01:49:25;23.07;;;21.53;;
15454;SDS011;21057;51.024;7.540;2023-03-01T01:52:04;22.87;;;20.13;;
15454;SDS011;21057;51.024;7.540;2023-03-01T01:54:38;22.67;;;21.03;;
15454;SDS011;21057;51.024;7.540;2023-03-01T01:57:12;21.87;;;20.43;;
15454;SDS011;21057;51.024;7.540;2023-03-01T01:59:45;22.50;;;20.93;;
15454;SDS011;21057;51.024;7.540;2023-03-01T02:02:17;22.90;;;21.40;;
15454;SDS011;21057;51.024;7.540;2023-03-01T02:04:46;21.90;;;20.50;;
15454;SDS011;21057;51.024;7.540;2023-03-01T02:07:16;22.30;;;20.80;;
15454;SDS011;21057;51.024;7.540;2023-03-01T02:09:46;20.90;;;19.57;;
15454;SDS011;21057;51.024;7.540;2023-03-01T02:12:18;22.20;;;20.47;;
15454;SDS011;21057;51.024;7.540;2023-03-01T02:14:49;22.83;;;21.23;;
15454;SDS011;21057;51.024;7.540;2023-03-01T02:17:16;21.80;;;20.47;;
15454;SDS011;21057;51.024;7.540;2023-03-01T02:19:47;23.50;;;21.77;;
15454;SDS011;21057;51.024;7.540;2023-03-01T02:22:20;22.50;;;21.10;;
15454;SDS011;21057;51.024;7.540;2023-03-01T02:24:52;22.07;;;20.37;;
15454;SDS011;21057;51.024;7.540;2023-03-01T02:27:28;22.43;;;20.93;;
15454;SDS011;21057;51.024;7.540;2023-03-01T02:30:03;21.77;;;20.27;;
15454;SDS011;21057;51.024;7.540;2023-03-01T02:32:31;22.00;;;20.47;;
15454;SDS011;21057;51.024;7.540;2023-03-01T02:34:57;21.80;;;20.30;;
15454;SDS011;21057;51.024;7.540;2023-03-01T02:37:24;21.93;;;20.37;;
15454;SDS011;21057;51.024;7.540;2023-03-01T02:39:53;22.57;;;20.53;;
15454;SDS011;21057;51.024;7.540;2023-03-01T02:42:26;22.17;;;20.87;;
15454;SDS011;21057;51.024;7.540;2023-03-01T02:45:08;22.93;;;21.20;;
15454;SDS011;21057;51.024;7.540;2023-03-01T02:47:38;22.97;;;21.37;;
15454;SDS011;21057;51.024;7.540;2023-03-01T02:50:09;22.03;;;20.63;;
15454;SDS011;21057;51.024;7.540;2023-03-01T02:52:47;21.00;;;19.60;;
15454;SDS011;21057;51.024;7.540;2023-03-01T02:55:19;22.37;;;20.90;;
15454;SDS011;21057;51.024;7.540;2023-03-01T02:57:46;24.93;;;22.73;;
15454;SDS011;21057;51.024;7.540;2023-03-01T03:00:18;21.60;;;20.10;;
15454;SDS011;21057;51.024;7.540;2023-03-01T03:02:47;22.43;;;20.97;;
15454;SDS011;21057;51.024;7.540;2023-03-01T03:05:17;22.43;;;20.87;;
15454;SDS011;21057;51.024;7.540;2023-03-01T03:07:46;27.93;;;21.73;;
15454;SDS011;21057;51.024;7.540;2023-03-01T03:10:20;21.17;;;19.80;;
15454;SDS011;21057;51.024;7.540;2023-03-01T03:12:49;21.00;;;19.70;;
15454;SDS011;21057;51.024;7.540;2023-03-01T03:15:18;22.27;;;20.50;;
15454;SDS011;21057;51.024;7.540;2023-03-01T03:17:46;21.70;;;20.20;;
15454;SDS011;21057;51.024;7.540;2023-03-01T03:20:14;23.00;;;21.23;;
15454;SDS011;21057;51.024;7.540;2023-03-01T03:22:44;22.80;;;21.30;;
15454;SDS011;21057;51.024;7.540;2023-03-01T03:25:13;22.90;;;21.13;;
15454;SDS011;21057;51.024;7.540;2023-03-01T03:27:40;22.30;;;20.80;;
15454;SDS011;21057;51.024;7.540;2023-03-01T03:30:10;22.03;;;20.47;;
15454;SDS011;21057;51.024;7.540;2023-03-01T03:35:17;21.00;;;19.70;;
15454;SDS011;21057;51.024;7.540;2023-03-01T03:37:44;23.30;;;21.47;;
15454;SDS011;21057;51.024;7.540;2023-03-01T03:40:31;22.23;;;20.73;;
15454;SDS011;21057;51.024;7.540;2023-03-01T03:43:00;21.30;;;20.00;;
15454;SDS011;21057;51.024;7.540;2023-03-01T03:45:27;23.87;;;22.20;;
15454;SDS011;21057;51.024;7.540;2023-03-01T03:47:56;21.97;;;20.47;;
15454;SDS011;21057;51.024;7.540;2023-03-01T03:50:22;22.27;;;20.77;;
15454;SDS011;21057;51.024;7.540;2023-03-01T03:52:49;21.77;;;20.37;;
15454;SDS011;21057;51.024;7.540;2023-03-01T03:55:16;22.60;;;21.10;;
15454;SDS011;21057;51.024;7.540;2023-03-01T03:57:44;21.60;;;20.23;;
15454;SDS011;21057;51.024;7.540;2023-03-01T04:00:21;22.33;;;20.80;;
15454;SDS011;21057;51.024;7.540;2023-03-01T04:02:49;22.50;;;20.80;;
15454;SDS011;21057;51.024;7.540;2023-03-01T04:07:57;21.30;;;19.90;;
15454;SDS011;21057;51.024;7.540;2023-03-01T04:10:35;22.13;;;20.70;;
15454;SDS011;21057;51.024;7.540;2023-03-01T04:13:05;21.63;;;20.30;;
15454;SDS011;21057;51.024;7.540;2023-03-01T04:15:35;22.23;;;20.67;;
15454;SDS011;21057;51.024;7.540;2023-03-01T04:18:03;21.77;;;20.37;;
15454;SDS011;21057;51.024;7.540;2023-03-01T04:20:32;23.33;;;21.83;;
15454;SDS011;21057;51.024;7.540;2023-03-01T04:23:01;21.33;;;20.03;;
15454;SDS011;21057;51.024;7.540;2023-03-01T04:25:45;21.47;;;20.10;;
15454;SDS011;21057;51.024;7.540;2023-03-01T04:28:30;22.67;;;21.17;;
15454;SDS011;21057;51.024;7.540;2023-03-01T04:31:01;22.10;;;20.80;;
15454;SDS011;21057;51.024;7.540;2023-03-01T04:33:50;21.33;;;20.13;;
15454;SDS011;21057;51.024;7.540;2023-03-01T04:36:20;24.53;;;22.70;;
15454;SDS011;21057;51.024;7.540;2023-03-01T04:38:49;23.30;;;21.53;;
15454;SDS011;21057;51.024;7.540;2023-03-01T04:41:17;22.37;;;20.87;;
15454;SDS011;21057;51.024;7.540;2023-03-01T04:43:45;22.87;;;20.93;;
15454;SDS011;21057;51.024;7.540;2023-03-01T04:46:13;21.77;;;20.43;;
15454;SDS011;21057;51.024;7.540;2023-03-01T04:48:42;21.80;;;20.37;;
15454;SDS011;21057;51.024;7.540;2023-03-01T04:51:10;21.87;;;20.47;;
15454;SDS011;21057;51.024;7.540;2023-03-01T04:53:39;22.17;;;20.77;;
15454;SDS011;21057;51.024;7.540;2023-03-01T04:56:07;21.03;;;19.73;;
15454;SDS011;21057;51.024;7.540;2023-03-01T04:58:34;21.77;;;20.37;;
15454;SDS011;21057;51.024;7.540;2023-03-01T05:01:08;22.53;;;21.13;;
15454;SDS011;21057;51.024;7.540;2023-03-01T05:03:40;22.10;;;20.80;;
15454;SDS011;21057;51.024;7.540;2023-03-01T05:06:14;22.43;;;21.03;;
15454;SDS011;21057;51.024;7.540;2023-03-01T05:11:14;20.70;;;19.40;;
15454;SDS011;21057;51.024;7.540;2023-03-01T05:13:47;21.80;;;20.47;;
15454;SDS011;21057;51.024;7.540;2023-03-01T05:16:25;22.00;;;20.57;;
15454;SDS011;21057;51.024;7.540;2023-03-01T05:18:52;21.30;;;19.77;;
15454;SDS011;21057;51.024;7.540;2023-03-01T05:21:20;20.77;;;19.50;;
15454;SDS011;21057;51.024;7.540;2023-03-01T05:23:56;22.73;;;21.30;;
15454;SDS011;21057;51.024;7.540;2023-03-01T05:26:29;22.00;;;20.50;;
15454;SDS011;21057;51.024;7.540;2023-03-01T05:28:57;20.90;;;19.50;;
15454;SDS011;21057;51.024;7.540;2023-03-01T05:31:24;21.47;;;20.07;;
15454;SDS011;21057;51.024;7.540;2023-03-01T05:33:52;20.90;;;19.60;;
15454;SDS011;21057;51.024;7.540;2023-03-01T05:36:19;23.23;;;21.27;;
15454;SDS011;21057;51.024;7.540;2023-03-01T05:38:48;21.07;;;19.67;;
15454;SDS011;21057;51.024;7.540;2023-03-01T05:41:16;20.70;;;19.47;;
15454;SDS011;21057;51.024;7.540;2023-03-01T05:43:43;20.20;;;19.03;;
15454;SDS011;21057;51.024;7.540;2023-03-01T05:46:09;23.43;;;21.90;;
15454;SDS011;21057;51.024;7.540;2023-03-01T05:48:38;22.13;;;20.77;;
15454;SDS011;21057;51.024;7.540;2023-03-01T05:51:05;23.43;;;21.63;;
15454;SDS011;21057;51.024;7.540;2023-03-01T05:53:31;22.50;;;20.97;;
15454;SDS011;21057;51.024;7.540;2023-03-01T05:55:58;22.63;;;21.33;;
15454;SDS011;21057;51.024;7.540;2023-03-01T05:58:35;22.27;;;20.67;;
15454;SDS011;21057;51.024;7.540;2023-03-01T06:01:04;22.83;;;21.20;;
15454;SDS011;21057;51.024;7.540;2023-03-01T06:03:33;23.70;;;21.90;;
15454;SDS011;21057;51.024;7.540;2023-03-01T06:06:02;21.80;;;20.50;;
15454;SDS011;21057;51.024;7.540;2023-03-01T06:08:29;23.57;;;21.20;;
15454;SDS011;21057;51.024;7.540;2023-03-01T06:10:56;22.77;;;21.13;;
15454;SDS011;21057;51.024;7.540;2023-03-01T06:13:23;21.47;;;20.07;;
15454;SDS011;21057;51.024;7.540;2023-03-01T06:15:51;22.27;;;20.87;;
15454;SDS011;21057;51.024;7.540;2023-03-01T06:18:18;22.93;;;21.43;;
15454;SDS011;21057;51.024;7.540;2023-03-01T06:20:45;22.30;;;20.67;;
15454;SDS011;21057;51.024;7.540;2023-03-01T06:23:19;22.77;;;21.33;;
15454;SDS011;21057;51.024;7.540;2023-03-01T06:25:47;22.73;;;21.20;;
15454;SDS011;21057;51.024;7.540;2023-03-01T06:28:14;23.50;;;21.93;;
15454;SDS011;21057;51.024;7.540;2023-03-01T06:30:45;22.27;;;20.97;;
15454;SDS011;21057;51.024;7.540;2023-03-01T06:33:13;21.87;;;20.57;;
15454;SDS011;21057;51.024;7.540;2023-03-01T06:35:53;24.47;;;22.90;;
15454;SDS011;21057;51.024;7.540;2023-03-01T06:38:20;23.80;;;22.23;;
15454;SDS011;21057;51.024;7.540;2023-03-01T06:41:00;24.27;;;22.67;;
15454;SDS011;21057;51.024;7.540;2023-03-01T06:43:27;26.70;;;24.23;;
15454;SDS011;21057;51.024;7.540;2023-03-01T06:45:54;25.27;;;23.43;;
15454;SDS011;21057;51.024;7.540;2023-03-01T06:48:22;26.07;;;23.57;;
15454;SDS011;21057;51.024;7.540;2023-03-01T06:50:49;23.90;;;21.70;;
15454;SDS011;21057;51.024;7.540;2023-03-01T06:53:16;27.20;;;24.37;;
15454;SDS011;21057;51.024;7.540;2023-03-01T06:55:43;25.90;;;23.80;;
15454;SDS011;21057;51.024;7.540;2023-03-01T06:58:09;27.17;;;24.67;;
15454;SDS011;21057;51.024;7.540;2023-03-01T07:00:37;24.53;;;22.87;;
15454;SDS011;21057;51.024;7.540;2023-03-01T07:03:05;25.23;;;23.17;;
15454;SDS011;21057;51.024;7.540;2023-03-01T07:05:34;24.50;;;22.13;;
15454;SDS011;21057;51.024;7.540;2023-03-01T07:08:01;26.40;;;24.13;;
15454;SDS011;21057;51.024;7.540;2023-03-01T07:10:27;23.40;;;21.80;;
15454;SDS011;21057;51.024;7.540;2023-03-01T07:12:55;25.40;;;23.23;;
15454;SDS011;21057;51.024;7.540;2023-03-01T07:15:24;25.93;;;23.80;;
15454;SDS011;21057;51.024;7.540;2023-03-01T07:17:59;23.33;;;21.73;;
15454;SDS011;21057;51.024;7.540;2023-03-01T07:20:25;26.67;;;24.53;;
15454;SDS011;21057;51.024;7.540;2023-03-01T07:22:54;24.10;;;22.37;;
15454;SDS011;21057;51.024;7.540;2023-03-01T07:25:23;24.40;;;22.30;;
15454;SDS011;21057;51.024;7.540;2023-03-01T07:27:54;24.47;;;22.87;;
15454;SDS011;21057;51.024;7.540;2023-03-01T07:30:23;25.57;;;23.30;;
15454;SDS011;21057;51.024;7.540;2023-03-01T07:33:01;24.37;;;22.80;;
15454;SDS011;21057;51.024;7.540;2023-03-01T07:35:39;24.27;;;22.47;;
15454;SDS011;21057;51.024;7.540;2023-03-01T07:40:57;23.70;;;22.07;;
15454;SDS011;21057;51.024;7.540;2023-03-01T07:43:25;25.10;;;23.17;;
15454;SDS011;21057;51.024;7.540;2023-03-01T07:45:52;22.83;;;21.43;;
15454;SDS011;21057;51.024;7.540;2023-03-01T07:48:19;24.00;;;22.37;;
15454;SDS011;21057;51.024;7.540;2023-03-01T07:50:48;25.23;;;23.60;;
15454;SDS011;21057;51.024;7.540;2023-03-01T07:53:16;23.37;;;21.67;;
15454;SDS011;21057;51.024;7.540;2023-03-01T07:55:43;22.90;;;21.40;;
15454;SDS011;21057;51.024;7.540;2023-03-01T07:58:12;24.50;;;22.80;;
15454;SDS011;21057;51.024;7.540;2023-03-01T08:00:39;23.63;;;21.83;;
15454;SDS011;21057;51.024;7.540;2023-03-01T08:03:07;23.70;;;22.17;;
15454;SDS011;21057;51.024;7.540;2023-03-01T08:08:17;23.67;;;22.07;;
15454;SDS011;21057;51.024;7.540;2023-03-01T08:10:44;24.03;;;22.27;;
15454;SDS011;21057;51.024;7.540;2023-03-01T08:13:11;24.27;;;22.57;;
15454;SDS011;21057;51.024;7.540;2023-03-01T08:15:52;23.77;;;22.20;;
15454;SDS011;21057;51.024;7.540;2023-03-01T08:18:38;24.83;;;23.10;;
15454;SDS011;21057;51.024;7.540;2023-03-01T08:21:11;25.40;;;23.70;;
15454;SDS011;21057;51.024;7.540;2023-03-01T08:23:49;28.70;;;23.73;;
15454;SDS011;21057;51.024;7.540;2023-03-01T08:26:26;24.70;;;22.80;;
15454;SDS011;21057;51.024;7.540;2023-03-01T08:29:00;24.03;;;22.43;;
15454;SDS011;21057;51.024;7.540;2023-03-01T08:31:28;24.83;;;22.97;;
15454;SDS011;21057;51.024;7.540;2023-03-01T08:33:58;25.40;;;23.63;;
15454;SDS011;21057;51.024;7.540;2023-03-01T08:36:27;26.10;;;24.00;;
15454;SDS011;21057;51.024;7.540;2023-03-01T08:38:57;24.30;;;22.67;;
15454;SDS011;21057;51.024;7.540;2023-03-01T08:41:24;23.57;;;22.00;;
15454;SDS011;21057;51.024;7.540;2023-03-01T08:43:51;24.80;;;22.97;;
15454;SDS011;21057;51.024;7.540;2023-03-01T08:46:23;26.13;;;24.23;;
15454;SDS011;21057;51.024;7.540;2023-03-01T08:48:50;23.33;;;21.87;;
15454;SDS011;21057;51.024;7.540;2023-03-01T08:51:20;25.77;;;23.50;;
15454;SDS011;21057;51.024;7.540;2023-03-01T08:53:48;24.90;;;23.17;;
15454;SDS011;21057;51.024;7.540;2023-03-01T08:56:18;24.97;;;23.17;;
15454;SDS011;21057;51.024;7.540;2023-03-01T08:58:47;23.77;;;22.07;;
15454;SDS011;21057;51.024;7.540;2023-03-01T09:01:22;22.37;;;20.80;;
15454;SDS011;21057;51.024;7.540;2023-03-01T09:03:51;23.53;;;21.83;;
15454;SDS011;21057;51.024;7.540;2023-03-01T09:06:18;25.03;;;22.90;;
15454;SDS011;21057;51.024;7.540;2023-03-01T09:08:47;24.07;;;22.13;;
15454;SDS011;21057;51.024;7.540;2023-03-01T09:13:50;23.50;;;21.17;;
15454;SDS011;21057;51.024;7.540;2023-03-01T09:16:19;23.27;;;21.70;;
15454;SDS011;21057;51.024;7.540;2023-03-01T09:18:49;23.50;;;21.73;;
15454;SDS011;21057;51.024;7.540;2023-03-01T09:21:17;22.90;;;21.40;;
15454;SDS011;21057;51.024;7.540;2023-03-01T09:23:46;24.17;;;22.13;;
15454;SDS011;21057;51.024;7.540;2023-03-01T09:26:15;22.60;;;21.17;;
15454;SDS011;21057;51.024;7.540;2023-03-01T09:28:45;23.70;;;21.90;;
15454;SDS011;21057;51.024;7.540;2023-03-01T09:31:13;22.70;;;21.10;;
15454;SDS011;21057;51.024;7.540;2023-03-01T09:33:41;23.73;;;22.00;;
15454;SDS011;21057;51.024;7.540;2023-03-01T09:36:10;22.10;;;20.60;;
15454;SDS011;21057;51.024;7.540;2023-03-01T09:38:38;22.83;;;21.20;;
15454;SDS011;21057;51.024;7.540;2023-03-01T09:41:18;23.87;;;21.97;;
15454;SDS011;21057;51.024;7.540;2023-03-01T09:43:59;23.57;;;21.83;;
15454;SDS011;21057;51.024;7.540;2023-03-01T09:49:04;22.33;;;20.93;;
15454;SDS011;21057;51.024;7.540;2023-03-01T09:51:43;23.50;;;21.90;;
15454;SDS011;21057;51.024;7.540;2023-03-01T09:54:32;25.00;;;22.50;;
15454;SDS011;21057;51.024;7.540;2023-03-01T09:57:02;20.93;;;19.63;;
15454;SDS011;21057;51.024;7.540;2023-03-01T09:59:36;22.50;;;21.03;;
15454;SDS011;21057;51.024;7.540;2023-03-01T10:02:21;22.87;;;21.07;;
15454;SDS011;21057;51.024;7.540;2023-03-01T10:04:57;24.27;;;22.43;;
15454;SDS011;21057;51.024;7.540;2023-03-01T10:07:39;25.30;;;23.30;;
15454;SDS011;21057;51.024;7.540;2023-03-01T10:10:23;24.63;;;22.70;;
15454;SDS011;21057;51.024;7.540;2023-03-01T10:13:08;24.63;;;22.63;;
15454;SDS011;21057;51.024;7.540;2023-03-01T10:16:01;24.93;;;22.80;;
15454;SDS011;21057;51.024;7.540;2023-03-01T10:18:36;24.17;;;22.17;;
15454;SDS011;21057;51.024;7.540;2023-03-01T10:21:09;24.60;;;22.43;;
15454;SDS011;21057;51.024;7.540;2023-03-01T10:23:49;25.47;;;23.27;;
15454;SDS011;21057;51.024;7.540;2023-03-01T10:26:23;24.07;;;22.13;;
15454;SDS011;21057;51.024;7.540;2023-03-01T10:29:07;23.93;;;21.97;;
15454;SDS011;21057;51.024;7.540;2023-03-01T10:31:41;23.70;;;21.80;;
15454;SDS011;21057;51.024;7.540;2023-03-01T10:34:26;24.93;;;22.83;;
15454;SDS011;21057;51.024;7.540;2023-03-01T10:36:57;25.30;;;23.17;;
15454;SDS011;21057;51.024;7.540;2023-03-01T10:39:28;24.60;;;22.60;;
15454;SDS011;21057;51.024;7.540;2023-03-01T10:41:56;24.67;;;22.63;;
15454;SDS011;21057;51.024;7.540;2023-03-01T10:44:34;24.20;;;22.17;;
15454;SDS011;21057;51.024;7.540;2023-03-01T10:47:13;24.33;;;22.43;;
15454;SDS011;21057;51.024;7.540;2023-03-01T10:49:57;23.50;;;21.70;;
15454;SDS011;21057;51.024;7.540;2023-03-01T10:52:28;24.37;;;22.40;;
15454;SDS011;21057;51.024;7.540;2023-03-01T10:54:58;24.63;;;22.47;;
15454;SDS011;21057;51.024;7.540;2023-03-01T10:57:28;23.90;;;22.00;;
15454;SDS011;21057;51.024;7.540;2023-03-01T11:03:01;23.97;;;22.17;;
15454;SDS011;21057;51.024;7.540;2023-03-01T11:08:35;24.77;;;22.60;;
15454;SDS011;21057;51.024;7.540;2023-03-01T11:11:12;23.37;;;21.57;;
15454;SDS011;21057;51.024;7.540;2023-03-01T11:13:47;22.50;;;20.70;;
15454;SDS011;21057;51.024;7.540;2023-03-01T11:16:28;22.73;;;20.93;;
15454;SDS011;21057;51.024;7.540;2023-03-01T11:21:54;23.70;;;21.50;;
15454;SDS011;21057;51.024;7.540;2023-03-01T11:24:27;23.73;;;21.87;;
15454;SDS011;21057;51.024;7.540;2023-03-01T11:27:03;24.73;;;22.83;;
15454;SDS011;21057;51.024;7.540;2023-03-01T11:29:35;25.77;;;23.47;;
15454;SDS011;21057;51.024;7.540;2023-03-01T11:32:06;24.50;;;22.70;;
15454;SDS011;21057;51.024;7.540;2023-03-01T11:34:40;24.43;;;22.43;;
15454;SDS011;21057;51.024;7.540;2023-03-01T11:37:13;24.47;;;22.30;;
15454;SDS011;21057;51.024;7.540;2023-03-01T11:39:51;24.10;;;22.20;;
15454;SDS011;21057;51.024;7.540;2023-03-01T11:42:24;23.57;;;21.67;;
15454;SDS011;21057;51.024;7.540;2023-03-01T11:44:59;24.13;;;22.13;;
15454;SDS011;21057;51.024;7.540;2023-03-01T11:47:37;24.10;;;22.07;;
15454;SDS011;21057;51.024;7.540;2023-03-01T11:50:30;24.10;;;22.20;;
15454;SDS011;21057;51.024;7.540;2023-03-01T11:53:09;23.27;;;21.53;;
15454;SDS011;21057;51.024;7.540;2023-03-01T11:56:16;22.93;;;21.20;;
15454;SDS011;21057;51.024;7.540;2023-03-01T11:59:03;22.03;;;20.37;;
15454;SDS011;21057;51.024;7.540;2023-03-01T12:01:46;22.20;;;20.53;;
15454;SDS011;21057;51.024;7.540;2023-03-01T12:04:32;21.73;;;20.10;;
15454;SDS011;21057;51.024;7.540;2023-03-01T12:07:19;22.67;;;20.83;;
15454;SDS011;21057;51.024;7.540;2023-03-01T12:09:58;22.67;;;21.07;;
15454;SDS011;21057;51.024;7.540;2023-03-01T12:12:49;23.40;;;21.60;;
15454;SDS011;21057;51.024;7.540;2023-03-01T12:18:38;22.17;;;20.47;;
15454;SDS011;21057;51.024;7.540;2023-03-01T12:21:27;23.53;;;21.53;;
15454;SDS011;21057;51.024;7.540;2023-03-01T12:27:03;21.57;;;20.07;;
15454;SDS011;21057;51.024;7.540;2023-03-01T12:29:41;22.67;;;21.07;;
15454;SDS011;21057;51.024;7.540;2023-03-01T12:32:19;22.80;;;20.80;;
15454;SDS011;21057;51.024;7.540;2023-03-01T12:35:05;21.13;;;19.73;;
15454;SDS011;21057;51.024;7.540;2023-03-01T12:37:54;21.77;;;20.17;;
15454;SDS011;21057;51.024;7.540;2023-03-01T12:40:33;21.23;;;19.67;;
15454;SDS011;21057;51.024;7.540;2023-03-01T12:43:27;21.17;;;19.67;;
15454;SDS011;21057;51.024;7.540;2023-03-01T12:48:54;21.43;;;19.77;;
15454;SDS011;21057;51.024;7.540;2023-03-01T12:51:29;21.70;;;20.27;;
15454;SDS011;21057;51.024;7.540;2023-03-01T12:53:58;21.13;;;19.73;;
15454;SDS011;21057;51.024;7.540;2023-03-01T12:56:32;22.67;;;20.87;;
15454;SDS011;21057;51.024;7.540;2023-03-01T12:59:05;22.17;;;20.67;;
15454;SDS011;21057;51.024;7.540;2023-03-01T13:01:44;21.90;;;20.30;;
15454;SDS011;21057;51.024;7.540;2023-03-01T13:04:20;21.20;;;19.53;;
15454;SDS011;21057;51.024;7.540;2023-03-01T13:07:08;22.30;;;20.57;;
15454;SDS011;21057;51.024;7.540;2023-03-01T13:09:47;21.40;;;19.93;;
15454;SDS011;21057;51.024;7.540;2023-03-01T13:15:29;22.37;;;20.47;;
15454;SDS011;21057;51.024;7.540;2023-03-01T13:20:34;21.70;;;20.20;;
15454;SDS011;21057;51.024;7.540;2023-03-01T13:23:27;21.50;;;20.00;;
15454;SDS011;21057;51.024;7.540;2023-03-01T13:26:11;22.30;;;20.00;;
15454;SDS011;21057;51.024;7.540;2023-03-01T13:28:56;20.30;;;18.90;;
15454;SDS011;21057;51.024;7.540;2023-03-01T13:37:28;21.03;;;19.67;;
15454;SDS011;21057;51.024;7.540;2023-03-01T13:39:57;21.63;;;20.13;;
15454;SDS011;21057;51.024;7.540;2023-03-01T13:42:40;22.37;;;20.80;;
15454;SDS011;21057;51.024;7.540;2023-03-01T13:45:17;21.27;;;19.87;;
15454;SDS011;21057;51.024;7.540;2023-03-01T13:47:51;22.13;;;20.60;;
15454;SDS011;21057;51.024;7.540;2023-03-01T13:50:24;23.17;;;21.07;;
15454;SDS011;21057;51.024;7.540;2023-03-01T13:52:54;21.67;;;19.97;;
15454;SDS011;21057;51.024;7.540;2023-03-01T13:55:26;21.83;;;20.23;;
15454;SDS011;21057;51.024;7.540;2023-03-01T13:57:59;21.67;;;19.97;;
15454;SDS011;21057;51.024;7.540;2023-03-01T14:00:32;22.40;;;20.80;;
15454;SDS011;21057;51.024;7.540;2023-03-01T14:03:02;21.93;;;20.10;;
15454;SDS011;21057;51.024;7.540;2023-03-01T14:05:31;21.43;;;19.87;;
15454;SDS011;21057;51.024;7.540;2023-03-01T14:07:58;22.30;;;20.40;;
15454;SDS011;21057;51.024;7.540;2023-03-01T14:10:44;23.47;;;21.47;;
15454;SDS011;21057;51.024;7.540;2023-03-01T14:13:30;22.20;;;20.50;;
15454;SDS011;21057;51.024;7.540;2023-03-01T14:16:12;22.90;;;21.03;;
15454;SDS011;21057;51.024;7.540;2023-03-01T14:19:14;22.03;;;20.43;;
15454;SDS011;21057;51.024;7.540;2023-03-01T14:21:45;23.00;;;21.20;;
15454;SDS011;21057;51.024;7.540;2023-03-01T14:27:09;22.77;;;21.07;;
15454;SDS011;21057;51.024;7.540;2023-03-01T14:29:39;22.60;;;20.70;;
15454;SDS011;21057;51.024;7.540;2023-03-01T14:32:12;23.53;;;21.57;;
15454;SDS011;21057;51.024;7.540;2023-03-01T14:34:48;23.97;;;22.07;;
15454;SDS011;21057;51.024;7.540;2023-03-01T14:37:19;22.73;;;21.10;;
15454;SDS011;21057;51.024;7.540;2023-03-01T14:39:48;23.17;;;21.37;;
15454;SDS011;21057;51.024;7.540;2023-03-01T14:42:16;22.80;;;20.90;;
15454;SDS011;21057;51.024;7.540;2023-03-01T14:44:46;23.07;;;21.17;;
15454;SDS011;21057;51.024;7.540;2023-03-01T14:47:19;23.27;;;21.33;;
15454;SDS011;21057;51.024;7.540;2023-03-01T14:49:54;21.40;;;19.87;;
15454;SDS011;21057;51.024;7.540;2023-03-01T14:52:28;22.30;;;20.67;;
15454;SDS011;21057;51.024;7.540;2023-03-01T14:55:15;21.77;;;20.00;;
15454;SDS011;21057;51.024;7.540;2023-03-01T14:57:50;22.17;;;20.47;;
15454;SDS011;21057;51.024;7.540;2023-03-01T15:00:20;21.60;;;20.10;;
15454;SDS011;21057;51.024;7.540;2023-03-01T15:05:27;21.83;;;20.20;;
15454;SDS011;21057;51.024;7.540;2023-03-01T15:07:56;22.50;;;20.63;;
15454;SDS011;21057;51.024;7.540;2023-03-01T15:10:25;23.73;;;21.93;;
15454;SDS011;21057;51.024;7.540;2023-03-01T15:12:54;23.10;;;21.50;;
15454;SDS011;21057;51.024;7.540;2023-03-01T15:15:23;21.63;;;20.17;;
15454;SDS011;21057;51.024;7.540;2023-03-01T15:18:01;23.00;;;21.30;;
15454;SDS011;21057;51.024;7.540;2023-03-01T15:20:30;22.97;;;21.10;;
15454;SDS011;21057;51.024;7.540;2023-03-01T15:23:00;21.70;;;20.07;;
15454;SDS011;21057;51.024;7.540;2023-03-01T15:25:28;21.83;;;20.33;;
15454;SDS011;21057;51.024;7.540;2023-03-01T15:27:57;21.60;;;20.00;;
15454;SDS011;21057;51.024;7.540;2023-03-01T15:30:26;21.23;;;19.70;;
15454;SDS011;21057;51.024;7.540;2023-03-01T15:35:54;21.63;;;20.03;;
15454;SDS011;21057;51.024;7.540;2023-03-01T15:38:26;22.23;;;20.23;;
15454;SDS011;21057;51.024;7.540;2023-03-01T15:40:59;21.40;;;19.90;;
15454;SDS011;21057;51.024;7.540;2023-03-01T15:43:37;20.47;;;18.90;;
15454;SDS011;21057;51.024;7.540;2023-03-01T15:46:05;20.43;;;19.13;;
15454;SDS011;21057;51.024;7.540;2023-03-01T15:48:50;20.13;;;18.83;;
15454;SDS011;21057;51.024;7.540;2023-03-01T15:51:21;21.00;;;19.50;;